sensor_id;sensor_type;location;lat;lon;timestamp;temperature;humidity
15615;DHT22;7907;51.368;6.730;2023-03-25T00:01:49;10.20;99.90
15615;DHT22;7907;51.368;6.730;2023-03-25T00:04:17;10.10;99.90
15615;DHT22;7907;51.368;6.730;2023-03-25T00:06:44;10.10;99.90
15615;DHT22;7907;51.368;6.730;2023-03-25T00:09:12;10.10;99.90
15615;DHT22;7907;51.368;6.730;2023-03-25T00:11:39;10.10;99.90
15615;DHT22;7907;51.368;6.730;2023-03-25T00:14:08;10.10;99.90
15615;DHT22;7907;51.368;6.730;2023-03-25T00:16:37;10.10;99.90
15615;DHT22;7907;51.368;6.730;2023-03-25T00:19:04;10.20;99.90
15615;DHT22;7907;51.368;6.730;2023-03-25T00:21:34;10.20;99.90
15615;DHT22;7907;51.368;6.730;2023-03-25T00:24:02;10.20;99.90
15615;DHT22;7907;51.368;6.730;2023-03-25T00:26:29;10.10;99.90
15615;DHT22;7907;51.368;6.730;2023-03-25T00:28:57;10.20;99.90
15615;DHT22;7907;51.368;6.730;2023-03-25T00:31:26;10.20;99.90
15615;DHT22;7907;51.368;6.730;2023-03-25T00:33:54;10.30;99.90
15615;DHT22;7907;51.368;6.730;2023-03-25T00:36:22;10.30;99.90
15615;DHT22;7907;51.368;6.730;2023-03-25T00:38:50;10.30;99.90
15615;DHT22;7907;51.368;6.730;2023-03-25T00:41:19;10.30;99.90
15615;DHT22;7907;51.368;6.730;2023-03-25T00:43:47;10.30;99.90
15615;DHT22;7907;51.368;6.730;2023-03-25T00:46:15;10.30;99.90
15615;DHT22;7907;51.368;6.730;2023-03-25T00:48:50;10.40;99.90
15615;DHT22;7907;51.368;6.730;2023-03-25T00:51:18;10.30;99.90
15615;DHT22;7907;51.368;6.730;2023-03-25T00:53:47;10.40;99.90
15615;DHT22;7907;51.368;6.730;2023-03-25T00:56:16;10.40;99.90
15615;DHT22;7907;51.368;6.730;2023-03-25T00:58:44;10.40;99.90
15615;DHT22;7907;51.368;6.730;2023-03-25T01:01:19;10.40;99.90
15615;DHT22;7907;51.368;6.730;2023-03-25T01:03:54;10.40;99.90
15615;DHT22;7907;51.368;6.730;2023-03-25T01:06:28;10.40;99.90
15615;DHT22;7907;51.368;6.730;2023-03-25T01:08:58;10.40;99.90
15615;DHT22;7907;51.368;6.730;2023-03-25T01:11:28;10.40;99.90
15615;DHT22;7907;51.368;6.730;2023-03-25T01:14:00;10.40;99.90
15615;DHT22;7907;51.368;6.730;2023-03-25T01:16:28;10.40;99.90
15615;DHT22;7907;51.368;6.730;2023-03-25T01:18:57;10.40;99.90
15615;DHT22;7907;51.368;6.730;2023-03-25T01:21:24;10.40;99.90
15615;DHT22;7907;51.368;6.730;2023-03-25T01:23:52;10.40;99.90
15615;DHT22;7907;51.368;6.730;2023-03-25T01:26:21;10.40;99.90
15615;DHT22;7907;51.368;6.730;2023-03-25T01:28:49;10.40;99.90
15615;DHT22;7907;51.368;6.730;2023-03-25T01:31:18;10.50;99.90
15615;DHT22;7907;51.368;6.730;2023-03-25T01:33:47;10.50;99.90
15615;DHT22;7907;51.368;6.730;2023-03-25T01:36:17;10.50;99.90
15615;DHT22;7907;51.368;6.730;2023-03-25T01:38:45;10.50;99.90
15615;DHT22;7907;51.368;6.730;2023-03-25T01:41:15;10.50;99.90
15615;DHT22;7907;51.368;6.730;2023-03-25T01:44:00;10.50;99.90
15615;DHT22;7907;51.368;6.730;2023-03-25T01:46:28;10.50;99.90
15615;DHT22;7907;51.368;6.730;2023-03-25T01:48:56;10.50;99.90
15615;DHT22;7907;51.368;6.730;2023-03-25T01:51:29;10.50;99.90
15615;DHT22;7907;51.368;6.730;2023-03-25T01:53:57;10.50;99.90
15615;DHT22;7907;51.368;6.730;2023-03-25T01:56:28;10.50;99.90
15615;DHT22;7907;51.368;6.730;2023-03-25T01:58:58;10.40;99.90
15615;DHT22;7907;51.368;6.730;2023-03-25T02:01:27;10.50;99.90
15615;DHT22;7907;51.368;6.730;2023-03-25T02:03:57;10.50;99.90
15615;DHT22;7907;51.368;6.730;2023-03-25T02:06:32;10.50;99.90
15615;DHT22;7907;51.368;6.730;2023-03-25T02:09:02;10.50;99.90
15615;DHT22;7907;51.368;6.730;2023-03-25T02:11:31;10.50;99.90
15615;DHT22;7907;51.368;6.730;2023-03-25T02:14:04;10.50;99.90
15615;DHT22;7907;51.368;6.730;2023-03-25T02:16:44;10.40;99.90
15615;DHT22;7907;51.368;6.730;2023-03-25T02:26:14;10.30;99.90
15615;DHT22;7907;51.368;6.730;2023-03-25T02:28:48;10.30;99.90
15615;DHT22;7907;51.368;6.730;2023-03-25T02:31:36;10.30;99.90
15615;DHT22;7907;51.368;6.730;2023-03-25T02:34:22;10.30;99.90
15615;DHT22;7907;51.368;6.730;2023-03-25T02:39:59;10.30;99.90
15615;DHT22;7907;51.368;6.730;2023-03-25T02:42:40;10.40;99.90
15615;DHT22;7907;51.368;6.730;2023-03-25T02:45:13;10.40;99.90
15615;DHT22;7907;51.368;6.730;2023-03-25T02:47:45;10.30;99.90
15615;DHT22;7907;51.368;6.730;2023-03-25T02:50:16;10.30;99.90
15615;DHT22;7907;51.368;6.730;2023-03-25T02:52:46;10.30;99.90
15615;DHT22;7907;51.368;6.730;2023-03-25T02:55:19;10.30;99.90
15615;DHT22;7907;51.368;6.730;2023-03-25T02:58:00;10.30;99.90
15615;DHT22;7907;51.368;6.730;2023-03-25T03:00:29;10.30;99.90
15615;DHT22;7907;51.368;6.730;2023-03-25T03:03:05;10.30;99.90
15615;DHT22;7907;51.368;6.730;2023-03-25T03:05:42;10.30;99.90
15615;DHT22;7907;51.368;6.730;2023-03-25T03:08:25;10.30;99.90
15615;DHT22;7907;51.368;6.730;2023-03-25T03:11:04;10.30;99.90
15615;DHT22;7907;51.368;6.730;2023-03-25T03:13:55;10.30;99.90
15615;DHT22;7907;51.368;6.730;2023-03-25T03:16:31;10.20;99.90
15615;DHT22;7907;51.368;6.730;2023-03-25T03:19:08;10.30;99.90
15615;DHT22;7907;51.368;6.730;2023-03-25T03:21:48;10.20;99.90
15615;DHT22;7907;51.368;6.730;2023-03-25T03:24:31;10.20;99.90
15615;DHT22;7907;51.368;6.730;2023-03-25T03:27:11;10.20;99.90
15615;DHT22;7907;51.368;6.730;2023-03-25T03:29:44;10.20;99.90
15615;DHT22;7907;51.368;6.730;2023-03-25T03:32:19;10.20;99.90
15615;DHT22;7907;51.368;6.730;2023-03-25T03:34:51;10.20;99.90
15615;DHT22;7907;51.368;6.730;2023-03-25T03:37:23;10.10;99.90
15615;DHT22;7907;51.368;6.730;2023-03-25T03:39:54;10.10;99.90
15615;DHT22;7907;51.368;6.730;2023-03-25T03:42:28;10.10;99.90
15615;DHT22;7907;51.368;6.730;2023-03-25T03:45:07;10.10;99.90
15615;DHT22;7907;51.368;6.730;2023-03-25T03:47:38;10.00;99.90
15615;DHT22;7907;51.368;6.730;2023-03-25T03:50:09;10.00;99.90
15615;DHT22;7907;51.368;6.730;2023-03-25T03:52:41;10.00;99.90
15615;DHT22;7907;51.368;6.730;2023-03-25T03:55:13;10.00;99.90
15615;DHT22;7907;51.368;6.730;2023-03-25T03:57:59;10.00;99.90
15615;DHT22;7907;51.368;6.730;2023-03-25T04:00:34;10.00;99.90
15615;DHT22;7907;51.368;6.730;2023-03-25T04:03:08;10.00;99.90
15615;DHT22;7907;51.368;6.730;2023-03-25T04:05:56;10.00;99.90
15615;DHT22;7907;51.368;6.730;2023-03-25T04:08:28;10.00;99.90
15615;DHT22;7907;51.368;6.730;2023-03-25T04:11:03;10.00;99.90
15615;DHT22;7907;51.368;6.730;2023-03-25T04:13:38;10.00;99.90
15615;DHT22;7907;51.368;6.730;2023-03-25T04:16:06;9.90;99.90
15615;DHT22;7907;51.368;6.730;2023-03-25T04:18:35;9.90;99.90
15615;DHT22;7907;51.368;6.730;2023-03-25T04:21:02;9.90;99.90
15615;DHT22;7907;51.368;6.730;2023-03-25T04:23:29;9.90;99.90
15615;DHT22;7907;51.368;6.730;2023-03-25T04:26:23;9.90;99.90
15615;DHT22;7907;51.368;6.730;2023-03-25T04:28:56;9.90;99.90
15615;DHT22;7907;51.368;6.730;2023-03-25T04:31:26;9.90;99.90
15615;DHT22;7907;51.368;6.730;2023-03-25T04:33:56;10.00;99.90
15615;DHT22;7907;51.368;6.730;2023-03-25T04:36:24;9.90;99.90
15615;DHT22;7907;51.368;6.730;2023-03-25T04:38:53;9.90;99.90
15615;DHT22;7907;51.368;6.730;2023-03-25T04:41:22;9.90;99.90
15615;DHT22;7907;51.368;6.730;2023-03-25T04:44:06;9.90;99.90
15615;DHT22;7907;51.368;6.730;2023-03-25T04:46:34;9.90;99.90
15615;DHT22;7907;51.368;6.730;2023-03-25T04:49:03;9.90;99.90
15615;DHT22;7907;51.368;6.730;2023-03-25T04:51:31;9.90;99.90
15615;DHT22;7907;51.368;6.730;2023-03-25T04:53:59;10.00;99.90
15615;DHT22;7907;51.368;6.730;2023-03-25T04:56:26;10.00;99.90
15615;DHT22;7907;51.368;6.730;2023-03-25T04:58:54;10.00;99.90
15615;DHT22;7907;51.368;6.730;2023-03-25T05:01:25;10.00;99.90
15615;DHT22;7907;51.368;6.730;2023-03-25T05:03:56;10.00;99.90
15615;DHT22;7907;51.368;6.730;2023-03-25T05:06:29;10.00;99.90
15615;DHT22;7907;51.368;6.730;2023-03-25T05:08:59;10.00;99.90
15615;DHT22;7907;51.368;6.730;2023-03-25T05:11:30;10.00;99.90
15615;DHT22;7907;51.368;6.730;2023-03-25T05:13:58;10.00;99.90
15615;DHT22;7907;51.368;6.730;2023-03-25T05:16:28;10.00;99.90
15615;DHT22;7907;51.368;6.730;2023-03-25T05:18:55;10.00;99.90
15615;DHT22;7907;51.368;6.730;2023-03-25T05:21:24;10.00;99.90
15615;DHT22;7907;51.368;6.730;2023-03-25T05:23:52;10.00;99.90
15615;DHT22;7907;51.368;6.730;2023-03-25T05:26:19;10.00;99.90
15615;DHT22;7907;51.368;6.730;2023-03-25T05:28:46;10.00;99.90
15615;DHT22;7907;51.368;6.730;2023-03-25T05:31:16;10.00;99.90
15615;DHT22;7907;51.368;6.730;2023-03-25T05:33:45;10.00;99.90
15615;DHT22;7907;51.368;6.730;2023-03-25T05:36:21;10.00;99.90
15615;DHT22;7907;51.368;6.730;2023-03-25T05:38:51;10.00;99.90
15615;DHT22;7907;51.368;6.730;2023-03-25T05:41:26;10.00;99.90
15615;DHT22;7907;51.368;6.730;2023-03-25T05:43:58;10.00;99.90
15615;DHT22;7907;51.368;6.730;2023-03-25T05:46:27;10.00;99.90
15615;DHT22;7907;51.368;6.730;2023-03-25T05:48:57;9.90;99.90
15615;DHT22;7907;51.368;6.730;2023-03-25T05:51:29;10.00;99.90
15615;DHT22;7907;51.368;6.730;2023-03-25T05:53:58;9.90;99.90
15615;DHT22;7907;51.368;6.730;2023-03-25T05:56:26;9.90;99.90
15615;DHT22;7907;51.368;6.730;2023-03-25T05:58:54;9.90;99.90
15615;DHT22;7907;51.368;6.730;2023-03-25T06:01:22;10.00;99.90
15615;DHT22;7907;51.368;6.730;2023-03-25T06:03:49;10.00;99.90
15615;DHT22;7907;51.368;6.730;2023-03-25T06:06:18;10.00;99.90
15615;DHT22;7907;51.368;6.730;2023-03-25T06:08:46;10.00;99.90
15615;DHT22;7907;51.368;6.730;2023-03-25T06:11:15;10.00;99.90
15615;DHT22;7907;51.368;6.730;2023-03-25T06:13:45;10.00;99.90
15615;DHT22;7907;51.368;6.730;2023-03-25T06:16:18;10.00;99.90
15615;DHT22;7907;51.368;6.730;2023-03-25T06:18:47;9.90;99.90
15615;DHT22;7907;51.368;6.730;2023-03-25T06:21:23;10.00;99.90
15615;DHT22;7907;51.368;6.730;2023-03-25T06:23:51;10.00;99.90
15615;DHT22;7907;51.368;6.730;2023-03-25T06:26:22;10.00;99.90
15615;DHT22;7907;51.368;6.730;2023-03-25T06:28:49;10.00;99.90
15615;DHT22;7907;51.368;6.730;2023-03-25T06:31:18;10.00;99.90
15615;DHT22;7907;51.368;6.730;2023-03-25T06:34:00;10.00;99.90
15615;DHT22;7907;51.368;6.730;2023-03-25T06:36:43;9.90;99.90
15615;DHT22;7907;51.368;6.730;2023-03-25T06:39:14;9.90;99.90
15615;DHT22;7907;51.368;6.730;2023-03-25T06:41:44;9.90;99.90
15615;DHT22;7907;51.368;6.730;2023-03-25T06:44:13;9.90;99.90
15615;DHT22;7907;51.368;6.730;2023-03-25T06:46:43;9.90;99.90
15615;DHT22;7907;51.368;6.730;2023-03-25T06:49:11;9.90;99.90
15615;DHT22;7907;51.368;6.730;2023-03-25T06:51:38;10.00;99.90
15615;DHT22;7907;51.368;6.730;2023-03-25T06:54:08;10.00;99.90
15615;DHT22;7907;51.368;6.730;2023-03-25T06:56:37;10.00;99.90
15615;DHT22;7907;51.368;6.730;2023-03-25T06:59:05;10.00;99.90
15615;DHT22;7907;51.368;6.730;2023-03-25T07:01:35;10.00;99.90
15615;DHT22;7907;51.368;6.730;2023-03-25T07:04:04;10.00;99.90
15615;DHT22;7907;51.368;6.730;2023-03-25T07:06:32;10.00;99.90
15615;DHT22;7907;51.368;6.730;2023-03-25T07:09:00;10.00;99.90
15615;DHT22;7907;51.368;6.730;2023-03-25T07:11:32;10.10;99.90
15615;DHT22;7907;51.368;6.730;2023-03-25T07:14:00;10.10;99.90
15615;DHT22;7907;51.368;6.730;2023-03-25T07:16:28;10.20;99.90
15615;DHT22;7907;51.368;6.730;2023-03-25T07:18:55;10.20;99.90
15615;DHT22;7907;51.368;6.730;2023-03-25T07:21:26;10.30;99.90
15615;DHT22;7907;51.368;6.730;2023-03-25T07:23:54;10.30;99.90
15615;DHT22;7907;51.368;6.730;2023-03-25T07:26:23;10.30;99.90
15615;DHT22;7907;51.368;6.730;2023-03-25T07:28:53;10.30;99.90
15615;DHT22;7907;51.368;6.730;2023-03-25T07:31:21;10.30;99.90
15615;DHT22;7907;51.368;6.730;2023-03-25T07:33:48;10.20;99.90
15615;DHT22;7907;51.368;6.730;2023-03-25T07:36:16;10.30;99.90
15615;DHT22;7907;51.368;6.730;2023-03-25T07:38:43;10.30;99.90
15615;DHT22;7907;51.368;6.730;2023-03-25T07:41:13;10.30;99.90
15615;DHT22;7907;51.368;6.730;2023-03-25T07:43:40;10.20;99.90
15615;DHT22;7907;51.368;6.730;2023-03-25T07:46:12;10.30;99.90
15615;DHT22;7907;51.368;6.730;2023-03-25T07:48:41;10.30;99.90
15615;DHT22;7907;51.368;6.730;2023-03-25T07:51:22;10.30;99.90
15615;DHT22;7907;51.368;6.730;2023-03-25T07:53:52;10.20;99.90
15615;DHT22;7907;51.368;6.730;2023-03-25T07:56:20;10.30;99.90
15615;DHT22;7907;51.368;6.730;2023-03-25T07:58:47;10.30;99.90
15615;DHT22;7907;51.368;6.730;2023-03-25T08:01:18;10.30;99.90
15615;DHT22;7907;51.368;6.730;2023-03-25T08:03:45;10.30;99.90
15615;DHT22;7907;51.368;6.730;2023-03-25T08:06:13;10.40;99.90
15615;DHT22;7907;51.368;6.730;2023-03-25T08:08:41;10.40;99.90
15615;DHT22;7907;51.368;6.730;2023-03-25T08:11:09;10.50;99.90
15615;DHT22;7907;51.368;6.730;2023-03-25T08:13:37;10.60;99.90
15615;DHT22;7907;51.368;6.730;2023-03-25T08:16:10;10.60;99.90
15615;DHT22;7907;51.368;6.730;2023-03-25T08:18:40;10.80;99.90
15615;DHT22;7907;51.368;6.730;2023-03-25T08:21:09;10.80;99.90
15615;DHT22;7907;51.368;6.730;2023-03-25T08:23:37;10.90;99.90
15615;DHT22;7907;51.368;6.730;2023-03-25T08:26:04;10.90;99.90
15615;DHT22;7907;51.368;6.730;2023-03-25T08:28:32;10.90;99.90
15615;DHT22;7907;51.368;6.730;2023-03-25T08:31:13;11.00;99.90
15615;DHT22;7907;51.368;6.730;2023-03-25T08:34:05;11.10;99.90
15615;DHT22;7907;51.368;6.730;2023-03-25T08:36:45;11.10;99.90
15615;DHT22;7907;51.368;6.730;2023-03-25T08:39:16;11.10;99.90
15615;DHT22;7907;51.368;6.730;2023-03-25T08:41:57;11.10;99.90
15615;DHT22;7907;51.368;6.730;2023-03-25T08:44:25;11.00;99.90
15615;DHT22;7907;51.368;6.730;2023-03-25T08:46:52;11.10;99.90
15615;DHT22;7907;51.368;6.730;2023-03-25T08:49:22;11.20;99.90
15615;DHT22;7907;51.368;6.730;2023-03-25T08:51:50;11.20;99.90
15615;DHT22;7907;51.368;6.730;2023-03-25T08:54:19;11.30;99.90
15615;DHT22;7907;51.368;6.730;2023-03-25T08:56:48;11.30;99.90
15615;DHT22;7907;51.368;6.730;2023-03-25T08:59:20;11.30;99.90
15615;DHT22;7907;51.368;6.730;2023-03-25T09:01:57;11.40;99.90
15615;DHT22;7907;51.368;6.730;2023-03-25T09:04:40;11.40;99.90
15615;DHT22;7907;51.368;6.730;2023-03-25T09:07:09;11.50;99.90
15615;DHT22;7907;51.368;6.730;2023-03-25T09:09:37;11.50;99.90
15615;DHT22;7907;51.368;6.730;2023-03-25T09:12:05;11.40;99.90
15615;DHT22;7907;51.368;6.730;2023-03-25T09:14:34;11.30;99.90
15615;DHT22;7907;51.368;6.730;2023-03-25T09:17:07;11.40;99.90
15615;DHT22;7907;51.368;6.730;2023-03-25T09:19:38;11.40;99.90
15615;DHT22;7907;51.368;6.730;2023-03-25T09:22:15;11.40;99.90
15615;DHT22;7907;51.368;6.730;2023-03-25T09:24:43;11.30;99.90
15615;DHT22;7907;51.368;6.730;2023-03-25T09:27:11;11.30;99.90
15615;DHT22;7907;51.368;6.730;2023-03-25T09:29:39;11.40;99.90
15615;DHT22;7907;51.368;6.730;2023-03-25T09:32:09;11.40;99.90
15615;DHT22;7907;51.368;6.730;2023-03-25T09:34:48;11.40;99.90
15615;DHT22;7907;51.368;6.730;2023-03-25T09:37:29;11.40;99.90
15615;DHT22;7907;51.368;6.730;2023-03-25T09:40:00;11.50;99.90
15615;DHT22;7907;51.368;6.730;2023-03-25T09:42:37;11.50;99.90
15615;DHT22;7907;51.368;6.730;2023-03-25T09:45:20;11.60;99.90
15615;DHT22;7907;51.368;6.730;2023-03-25T09:47:56;11.60;99.90
15615;DHT22;7907;51.368;6.730;2023-03-25T09:50:29;11.80;99.90
15615;DHT22;7907;51.368;6.730;2023-03-25T09:53:02;11.80;99.90
15615;DHT22;7907;51.368;6.730;2023-03-25T09:55:37;12.00;99.90
15615;DHT22;7907;51.368;6.730;2023-03-25T09:58:29;12.00;99.90
15615;DHT22;7907;51.368;6.730;2023-03-25T10:01:07;12.00;99.90
15615;DHT22;7907;51.368;6.730;2023-03-25T10:03:49;12.00;99.90
15615;DHT22;7907;51.368;6.730;2023-03-25T10:06:21;12.10;99.90
15615;DHT22;7907;51.368;6.730;2023-03-25T10:09:05;12.00;99.90
15615;DHT22;7907;51.368;6.730;2023-03-25T10:11:50;11.90;99.90
15615;DHT22;7907;51.368;6.730;2023-03-25T10:14:29;12.00;99.90
15615;DHT22;7907;51.368;6.730;2023-03-25T10:17:14;12.10;99.90
15615;DHT22;7907;51.368;6.730;2023-03-25T10:19:57;12.20;99.90
15615;DHT22;7907;51.368;6.730;2023-03-25T10:23:06;12.30;99.90
15615;DHT22;7907;51.368;6.730;2023-03-25T10:25:38;12.40;99.90
15615;DHT22;7907;51.368;6.730;2023-03-25T10:28:29;12.40;99.90
15615;DHT22;7907;51.368;6.730;2023-03-25T10:31:09;12.40;99.90
15615;DHT22;7907;51.368;6.730;2023-03-25T10:33:43;12.50;99.90
15615;DHT22;7907;51.368;6.730;2023-03-25T10:36:16;12.50;99.90
15615;DHT22;7907;51.368;6.730;2023-03-25T10:38:58;12.50;99.90
15615;DHT22;7907;51.368;6.730;2023-03-25T10:41:32;12.50;99.90
15615;DHT22;7907;51.368;6.730;2023-03-25T10:44:07;12.40;99.90
15615;DHT22;7907;51.368;6.730;2023-03-25T10:46:51;12.40;99.90
15615;DHT22;7907;51.368;6.730;2023-03-25T10:49:26;12.50;99.90
15615;DHT22;7907;51.368;6.730;2023-03-25T10:52:00;12.60;99.90
15615;DHT22;7907;51.368;6.730;2023-03-25T10:54:42;12.80;99.90
15615;DHT22;7907;51.368;6.730;2023-03-25T10:57:18;12.70;99.90
15615;DHT22;7907;51.368;6.730;2023-03-25T10:59:57;12.80;99.90
15615;DHT22;7907;51.368;6.730;2023-03-25T11:02:28;12.80;99.90
15615;DHT22;7907;51.368;6.730;2023-03-25T11:05:01;12.70;99.90
15615;DHT22;7907;51.368;6.730;2023-03-25T11:07:33;12.60;99.90
15615;DHT22;7907;51.368;6.730;2023-03-25T11:10:16;12.50;99.90
15615;DHT22;7907;51.368;6.730;2023-03-25T11:12:44;12.50;99.90
15615;DHT22;7907;51.368;6.730;2023-03-25T11:15:18;12.50;99.90
15615;DHT22;7907;51.368;6.730;2023-03-25T11:18:01;12.40;99.90
15615;DHT22;7907;51.368;6.730;2023-03-25T11:20:34;12.30;99.90
15615;DHT22;7907;51.368;6.730;2023-03-25T11:23:21;12.20;99.90
15615;DHT22;7907;51.368;6.730;2023-03-25T11:26:06;12.20;99.90
15615;DHT22;7907;51.368;6.730;2023-03-25T11:28:39;12.10;99.90
15615;DHT22;7907;51.368;6.730;2023-03-25T11:31:12;12.00;99.90
15615;DHT22;7907;51.368;6.730;2023-03-25T11:34:09;11.90;99.90
15615;DHT22;7907;51.368;6.730;2023-03-25T11:36:50;11.90;99.90
15615;DHT22;7907;51.368;6.730;2023-03-25T11:39:36;12.00;99.90
15615;DHT22;7907;51.368;6.730;2023-03-25T11:42:29;12.10;99.90
15615;DHT22;7907;51.368;6.730;2023-03-25T11:44:59;12.30;99.90
15615;DHT22;7907;51.368;6.730;2023-03-25T11:47:37;12.40;99.90
15615;DHT22;7907;51.368;6.730;2023-03-25T11:50:23;12.50;99.90
15615;DHT22;7907;51.368;6.730;2023-03-25T11:52:56;12.40;99.90
15615;DHT22;7907;51.368;6.730;2023-03-25T11:55:36;12.40;99.90
15615;DHT22;7907;51.368;6.730;2023-03-25T11:58:31;12.40;99.90
15615;DHT22;7907;51.368;6.730;2023-03-25T12:01:05;12.50;99.90
15615;DHT22;7907;51.368;6.730;2023-03-25T12:03:40;12.60;99.90
15615;DHT22;7907;51.368;6.730;2023-03-25T12:06:16;12.70;99.90
15615;DHT22;7907;51.368;6.730;2023-03-25T12:08:49;12.70;99.90
15615;DHT22;7907;51.368;6.730;2023-03-25T12:11:22;12.80;99.90
15615;DHT22;7907;51.368;6.730;2023-03-25T12:14:13;12.80;99.90
15615;DHT22;7907;51.368;6.730;2023-03-25T12:16:47;12.80;99.90
15615;DHT22;7907;51.368;6.730;2023-03-25T12:19:22;13.00;99.90
15615;DHT22;7907;51.368;6.730;2023-03-25T12:22:12;13.30;99.90
15615;DHT22;7907;51.368;6.730;2023-03-25T12:24:57;13.40;99.90
15615;DHT22;7907;51.368;6.730;2023-03-25T12:27:40;13.60;99.90
15615;DHT22;7907;51.368;6.730;2023-03-25T12:30:22;13.80;99.90
15615;DHT22;7907;51.368;6.730;2023-03-25T12:32:55;13.80;99.90
15615;DHT22;7907;51.368;6.730;2023-03-25T12:35:32;14.00;99.90
15615;DHT22;7907;51.368;6.730;2023-03-25T12:38:32;14.10;99.90
15615;DHT22;7907;51.368;6.730;2023-03-25T12:41:19;14.40;99.90
15615;DHT22;7907;51.368;6.730;2023-03-25T12:44:02;14.60;99.90
15615;DHT22;7907;51.368;6.730;2023-03-25T12:46:57;14.80;99.90
15615;DHT22;7907;51.368;6.730;2023-03-25T12:49:55;15.00;99.90
15615;DHT22;7907;51.368;6.730;2023-03-25T12:52:32;15.10;99.90
15615;DHT22;7907;51.368;6.730;2023-03-25T12:55:23;15.10;99.90
15615;DHT22;7907;51.368;6.730;2023-03-25T12:58:17;14.80;99.90
15615;DHT22;7907;51.368;6.730;2023-03-25T13:00:56;14.60;99.90
15615;DHT22;7907;51.368;6.730;2023-03-25T13:03:49;14.50;99.90
15615;DHT22;7907;51.368;6.730;2023-03-25T13:06:24;14.50;99.90
15615;DHT22;7907;51.368;6.730;2023-03-25T13:08:59;14.40;99.90
15615;DHT22;7907;51.368;6.730;2023-03-25T13:11:46;13.90;99.90
15615;DHT22;7907;51.368;6.730;2023-03-25T13:14:20;13.10;99.90
15615;DHT22;7907;51.368;6.730;2023-03-25T13:16:54;12.60;99.90
15615;DHT22;7907;51.368;6.730;2023-03-25T13:19:30;12.50;99.90
15615;DHT22;7907;51.368;6.730;2023-03-25T13:22:13;12.70;99.90
15615;DHT22;7907;51.368;6.730;2023-03-25T13:24:52;12.80;99.90
15615;DHT22;7907;51.368;6.730;2023-03-25T13:27:31;12.90;99.90
15615;DHT22;7907;51.368;6.730;2023-03-25T13:29:59;12.90;99.90
15615;DHT22;7907;51.368;6.730;2023-03-25T13:32:33;12.70;99.90
15615;DHT22;7907;51.368;6.730;2023-03-25T13:35:10;12.70;99.90
15615;DHT22;7907;51.368;6.730;2023-03-25T13:37:43;12.70;99.90
15615;DHT22;7907;51.368;6.730;2023-03-25T13:40:21;12.60;99.90
15615;DHT22;7907;51.368;6.730;2023-03-25T13:42:58;12.50;99.90
15615;DHT22;7907;51.368;6.730;2023-03-25T13:45:31;12.30;99.90
15615;DHT22;7907;51.368;6.730;2023-03-25T13:48:04;12.30;99.90
15615;DHT22;7907;51.368;6.730;2023-03-25T13:50:38;12.20;99.90
15615;DHT22;7907;51.368;6.730;2023-03-25T13:53:11;12.10;99.90
15615;DHT22;7907;51.368;6.730;2023-03-25T13:55:44;12.20;99.90
15615;DHT22;7907;51.368;6.730;2023-03-25T13:58:29;12.40;99.90
15615;DHT22;7907;51.368;6.730;2023-03-25T14:01:15;12.50;99.90
15615;DHT22;7907;51.368;6.730;2023-03-25T14:07:15;12.40;99.90
15615;DHT22;7907;51.368;6.730;2023-03-25T14:10:18;12.30;99.90
15615;DHT22;7907;51.368;6.730;2023-03-25T14:12:51;12.00;99.90
15615;DHT22;7907;51.368;6.730;2023-03-25T14:15:25;11.60;99.90
15615;DHT22;7907;51.368;6.730;2023-03-25T14:17:54;11.40;99.90
15615;DHT22;7907;51.368;6.730;2023-03-25T14:20:25;11.20;99.90
15615;DHT22;7907;51.368;6.730;2023-03-25T14:23:00;11.00;99.90
15615;DHT22;7907;51.368;6.730;2023-03-25T14:26:13;10.90;99.90
15615;DHT22;7907;51.368;6.730;2023-03-25T14:29:04;10.60;99.90
15615;DHT22;7907;51.368;6.730;2023-03-25T14:31:34;10.20;99.90
15615;DHT22;7907;51.368;6.730;2023-03-25T14:34:33;9.90;99.90
15615;DHT22;7907;51.368;6.730;2023-03-25T14:37:41;9.60;99.90
15615;DHT22;7907;51.368;6.730;2023-03-25T14:40:59;9.50;99.90
15615;DHT22;7907;51.368;6.730;2023-03-25T14:44:21;9.40;99.90
15615;DHT22;7907;51.368;6.730;2023-03-25T14:47:35;9.40;99.90
15615;DHT22;7907;51.368;6.730;2023-03-25T14:54:18;9.30;99.90
15615;DHT22;7907;51.368;6.730;2023-03-25T14:57:23;9.20;99.90
15615;DHT22;7907;51.368;6.730;2023-03-25T14:59:54;9.20;99.90
15615;DHT22;7907;51.368;6.730;2023-03-25T15:02:27;9.20;99.90
15615;DHT22;7907;51.368;6.730;2023-03-25T15:05:19;9.20;99.90
15615;DHT22;7907;51.368;6.730;2023-03-25T15:07:58;9.20;99.90
15615;DHT22;7907;51.368;6.730;2023-03-25T15:10:33;9.10;99.90
15615;DHT22;7907;51.368;6.730;2023-03-25T15:13:14;9.10;99.90
15615;DHT22;7907;51.368;6.730;2023-03-25T15:15:58;9.20;99.90
15615;DHT22;7907;51.368;6.730;2023-03-25T15:19:00;9.40;99.90
15615;DHT22;7907;51.368;6.730;2023-03-25T15:22:05;9.60;99.90
15615;DHT22;7907;51.368;6.730;2023-03-25T15:24:36;9.70;99.90
15615;DHT22;7907;51.368;6.730;2023-03-25T15:27:20;9.90;99.90
15615;DHT22;7907;51.368;6.730;2023-03-25T15:31:36;10.50;99.90
15615;DHT22;7907;51.368;6.730;2023-03-25T15:33:42;11.50;99.90
15615;DHT22;7907;51.368;6.730;2023-03-25T15:36:34;12.40;99.90
15615;DHT22;7907;51.368;6.730;2023-03-25T15:39:20;12.30;99.90
15615;DHT22;7907;51.368;6.730;2023-03-25T15:42:05;12.00;99.90
15615;DHT22;7907;51.368;6.730;2023-03-25T15:45:04;11.70;99.90
15615;DHT22;7907;51.368;6.730;2023-03-25T15:48:04;12.00;99.90
15615;DHT22;7907;51.368;6.730;2023-03-25T15:50:39;12.10;99.90
15615;DHT22;7907;51.368;6.730;2023-03-25T15:56:10;11.80;99.90
15615;DHT22;7907;51.368;6.730;2023-03-25T15:58:46;11.70;99.90
15615;DHT22;7907;51.368;6.730;2023-03-25T16:01:26;11.60;99.90
15615;DHT22;7907;51.368;6.730;2023-03-25T16:03:59;11.50;99.90
15615;DHT22;7907;51.368;6.730;2023-03-25T16:06:30;11.70;99.90
15615;DHT22;7907;51.368;6.730;2023-03-25T16:09:00;12.40;99.90
15615;DHT22;7907;51.368;6.730;2023-03-25T16:11:29;12.90;99.90
15615;DHT22;7907;51.368;6.730;2023-03-25T16:14:03;13.40;99.90
15615;DHT22;7907;51.368;6.730;2023-03-25T16:16:33;13.60;99.90
15615;DHT22;7907;51.368;6.730;2023-03-25T16:19:02;13.80;99.90
15615;DHT22;7907;51.368;6.730;2023-03-25T16:21:32;14.30;99.90
15615;DHT22;7907;51.368;6.730;2023-03-25T16:24:02;14.70;99.90
15615;DHT22;7907;51.368;6.730;2023-03-25T16:26:34;15.20;99.90
15615;DHT22;7907;51.368;6.730;2023-03-25T16:29:08;15.60;99.90
15615;DHT22;7907;51.368;6.730;2023-03-25T16:31:38;15.90;99.90
15615;DHT22;7907;51.368;6.730;2023-03-25T16:34:13;16.00;99.90
15615;DHT22;7907;51.368;6.730;2023-03-25T16:36:43;16.00;99.90
15615;DHT22;7907;51.368;6.730;2023-03-25T16:39:12;15.90;99.90
15615;DHT22;7907;51.368;6.730;2023-03-25T16:41:44;15.60;99.90
15615;DHT22;7907;51.368;6.730;2023-03-25T16:44:15;15.10;99.90
15615;DHT22;7907;51.368;6.730;2023-03-25T16:46:46;14.90;99.90
15615;DHT22;7907;51.368;6.730;2023-03-25T16:49:26;14.50;99.90
15615;DHT22;7907;51.368;6.730;2023-03-25T16:51:56;14.20;99.90
15615;DHT22;7907;51.368;6.730;2023-03-25T16:54:33;13.90;99.90
15615;DHT22;7907;51.368;6.730;2023-03-25T16:57:05;13.50;99.90
15615;DHT22;7907;51.368;6.730;2023-03-25T16:59:34;13.30;99.90